Hlavní strana
METAR-TAF:

METAR-TAF

Letiště :

Bolzano, Itálie

zeměpisná šířka: 46-28N, zeměpisná délka: 011-20E, výška: 262 m

Aktuální stav počasí

Zpráva byla vytvořena před 25 minutami, v 16:50 UTC
Bezvětří
Teplota 5°C
Vlhkost vzduchu 81%
Tlak 1023 hPa
Viditelnost 10 km a více
Žádná oblačnost pod 1500 m, nevyskytují se cumulonimby.

METAR: LIPB 171650Z 00000KT CAVOK 05/02 Q1023

Čas: 18:15 (17:15 UTC)

Předpověď počasí

Zpráva byla vytvořena před 6 hodinami a 15 minutami, v 11:00 UTC
Předpověď platná od 17 v 12 UTC do 18 v 12 UTC
vítr z různých směrů 5 kt
Viditelnost 10 km a více
Skoro jasno ve výšce 6000 ft

TAF: LIPB 171100Z 1712/1812 VRB05KT 9999 FEW060

Stav a předpovědi počasí z více než 4 000 letišť (zprávy METAR a TAF).

Červené a žluté tečky na mapě představují dostupné meteorologické stanice.

Když kurzor umístíte na tečku, zobrazí se název stanice.

Pak kliknutím zobrazíte stav a předpověď počasí.

Chcete-li změnit mapu, kliknutím na zelené tlačítko se znaménkem +mapu přiblížíte, kliknutím na zelené tlačítko se znaménkem – mapu oddálíte a kliknutím na zelené šipky přejdete na sousední mapy.


METAR-TAF: